Time;durP1;ratioP1;P1;durP2;ratioP2;P2;SDS_P1;SDS_P2;PMS_P1;PMS_P2;Temp;Humidity;BMP_temperature;BMP_pressure;BME280_temperature;BME280_humidity;BME280_pressure;Samples;Min_cycle;Max_cycle;Signal;HPM_P1;HPM_P2
2021/11/06 00:02:10;;;;;;;6.10;5.50;;;;;;;12.36;77.26;100212.50;1759050;81;21611;-71
2021/11/06 00:04:37;;;;;;;6.17;5.58;;;;;;;12.30;77.31;100208.61;1752665;81;21035;-72
2021/11/06 00:07:04;;;;;;;6.12;5.35;;;;;;;12.22;77.67;100201.25;1735212;81;20943;-74
2021/11/06 00:09:30;;;;;;;7.92;5.35;;;;;;;12.16;78.23;100210.31;1735108;81;21089;-76
2021/11/06 00:11:56;;;;;;;6.90;6.05;;;;;;;12.12;78.73;100194.35;1754684;81;21120;-80
2021/11/06 00:14:23;;;;;;;6.40;5.80;;;;;;;12.10;79.30;100207.78;1747211;81;21031;-85
2021/11/06 00:16:53;;;;;;;6.55;5.35;;;;;;;12.04;80.02;100231.67;1728803;83;20948;-79
2021/11/06 00:19:19;;;;;;;6.10;5.35;;;;;;;11.96;80.93;100230.75;1749713;80;20954;-75
2021/11/06 00:21:45;;;;;;;5.90;5.30;;;;;;;11.87;81.77;100215.53;1783956;80;21117;-75
2021/11/06 00:24:12;;;;;;;7.95;5.67;;;;;;;11.77;82.42;100239.09;1732355;81;21737;-74
2021/11/06 00:26:38;;;;;;;5.87;5.33;;;;;;;11.68;81.96;100225.70;1709574;82;21037;-75
2021/11/06 00:29:05;;;;;;;8.93;5.92;;;;;;;11.56;80.09;100228.19;1689103;83;21070;-81
2021/11/06 00:31:32;;;;;;;5.28;4.83;;;;;;;11.48;79.78;100230.73;1713643;83;21029;-84
2021/11/06 00:33:59;;;;;;;6.72;4.67;;;;;;;11.37;79.24;100224.34;1713564;83;21112;-82
2021/11/06 00:36:25;;;;;;;6.72;4.45;;;;;;;11.27;77.67;100222.80;1720384;81;21039;-80
2021/11/06 00:38:52;;;;;;;5.08;4.58;;;;;;;11.18;77.45;100225.59;1728544;82;20945;-84
2021/11/06 00:41:19;;;;;;;5.62;4.45;;;;;;;11.12;77.59;100217.68;1728418;82;21571;-77
2021/11/06 00:43:45;;;;;;;6.12;4.22;;;;;;;11.06;77.89;100207.34;1723157;82;21082;-76
2021/11/06 00:46:11;;;;;;;6.50;5.12;;;;;;;11.03;77.77;100205.66;1713915;83;21253;-73
2021/11/06 00:48:38;;;;;;;6.67;5.25;;;;;;;10.97;77.98;100215.52;1719681;81;21046;-75
2021/11/06 00:51:04;;;;;;;5.05;4.15;;;;;;;10.92;77.97;100219.45;1759353;81;21004;-85
2021/11/06 00:53:31;;;;;;;5.75;3.98;;;;;;;10.88;78.35;100219.11;1749117;81;21540;-79
2021/11/06 00:55:57;;;;;;;6.35;4.35;;;;;;;10.80;78.51;100240.99;1743894;81;21063;-74
2021/11/06 00:58:25;;;;;;;4.85;4.22;;;;;;;10.76;78.88;100238.48;1764713;81;21015;-73
2021/11/06 01:00:51;;;;;;;4.50;4.10;;;;;;;10.70;79.29;100234.58;1737036;81;21007;-79
2021/11/06 01:03:18;;;;;;;6.12;3.58;;;;;;;10.65;79.64;100232.59;1732984;82;20948;-75
2021/11/06 01:05:45;;;;;;;5.25;4.03;;;;;;;10.60;80.03;100242.45;1732581;82;21004;-74
2021/11/06 01:08:11;;;;;;;6.00;4.80;;;;;;;10.52;80.42;100246.83;1732762;82;21118;-71
2021/11/06 01:10:38;;;;;;;3.55;3.25;;;;;;;10.44;81.07;100245.33;1732882;82;21057;-73
2021/11/06 01:13:05;;;;;;;4.97;4.53;;;;;;;10.36;81.53;100259.14;1741789;81;21724;-74
2021/11/06 01:15:32;;;;;;;4.90;4.50;;;;;;;10.30;81.44;100252.00;1776232;80;20976;-72
2021/11/06 01:18:00;;;;;;;5.00;4.53;;;;;;;10.21;82.09;100238.62;1761517;80;20986;-73
2021/11/06 01:20:29;;;;;;;3.77;3.40;;;;;;;10.15;82.27;100241.69;1734335;80;21503;-75
2021/11/06 01:22:55;;;;;;;5.92;4.37;;;;;;;10.08;81.79;100236.94;1724347;82;21782;-77
2021/11/06 01:25:22;;;;;;;4.45;4.05;;;;;;;10.05;81.92;100242.79;1739700;81;21043;-76
2021/11/06 01:27:48;;;;;;;4.20;3.75;;;;;;;10.02;82.17;100249.98;1727648;82;20936;-75
2021/11/06 01:30:15;;;;;;;5.62;5.08;;;;;;;9.98;82.68;100265.73;1740770;81;21042;-76
2021/11/06 01:32:44;;;;;;;6.08;3.95;;;;;;;9.94;83.39;100273.14;1740466;82;21054;-76
2021/11/06 01:35:11;;;;;;;5.37;4.62;;;;;;;9.91;83.76;100258.84;1759721;81;21477;-77
2021/11/06 01:37:37;;;;;;;6.37;4.05;;;;;;;9.86;84.14;100258.19;1759820;81;20979;-78
2021/11/06 01:40:06;;;;;;;4.45;4.05;;;;;;;9.83;84.46;100261.88;1738225;81;20947;-79
2021/11/06 01:42:32;;;;;;;7.47;4.62;;;;;;;9.81;84.04;100260.75;1759850;81;20978;-76
2021/11/06 01:44:59;;;;;;;6.92;4.28;;;;;;;9.81;83.78;100269.33;1732844;82;21047;-76
2021/11/06 01:47:25;;;;;;;4.58;4.17;;;;;;;9.78;83.74;100296.66;1707298;83;21084;-77
2021/11/06 01:49:51;;;;;;;5.92;4.95;;;;;;;9.77;83.90;100285.62;1707263;83;21007;-77
2021/11/06 01:52:18;;;;;;;5.10;4.22;;;;;;;9.77;84.09;100288.30;1707172;83;21039;-76
2021/11/06 01:54:45;;;;;;;4.22;3.83;;;;;;;9.76;82.85;100306.80;1723711;81;21011;-77
2021/11/06 01:57:11;;;;;;;7.20;5.05;;;;;;;9.77;82.25;100297.19;1725027;81;21043;-75
2021/11/06 01:59:38;;;;;;;7.53;6.10;;;;;;;9.78;81.73;100295.32;1725822;82;22213;-79
2021/11/06 02:02:04;;;;;;;5.22;3.77;;;;;;;9.77;81.12;100286.96;1742992;82;20961;-78
2021/11/06 02:04:30;;;;;;;4.15;3.75;;;;;;;9.78;80.16;100300.70;1725532;81;21560;-80
2021/11/06 02:06:57;;;;;;;4.58;4.17;;;;;;;9.80;79.85;100295.89;1726060;82;20995;-73
2021/11/06 02:09:23;;;;;;;7.08;4.40;;;;;;;9.81;80.04;100303.73;1725933;82;21171;-76
2021/11/06 02:11:49;;;;;;;5.50;4.17;;;;;;;9.83;80.26;100336.55;1703710;83;22242;-74
2021/11/06 02:14:16;;;;;;;5.87;3.83;;;;;;;9.82;80.18;100344.85;1695266;81;20946;-75
2021/11/06 02:16:44;;;;;;;5.87;5.22;;;;;;;9.76;80.54;100339.86;1761540;81;20994;-73
2021/11/06 02:19:10;;;;;;;3.90;3.60;;;;;;;9.73;80.71;100336.83;1751403;80;21063;-74
2021/11/06 02:21:37;;;;;;;5.85;3.87;;;;;;;9.69;81.14;100345.05;1753955;80;21056;-74
2021/11/06 02:24:04;;;;;;;5.90;4.17;;;;;;;9.69;81.59;100354.45;1773353;80;21068;-74
2021/11/06 02:26:31;;;;;;;3.77;3.47;;;;;;;9.69;81.90;100339.67;1710607;83;21548;-75
2021/11/06 02:29:00;;;;;;;6.15;4.53;;;;;;;9.69;82.31;100350.42;1713611;83;21555;-75
2021/11/06 02:31:26;;;;;;;5.80;4.72;;;;;;;9.67;82.72;100353.32;1704050;82;21579;-75
2021/11/06 02:33:54;;;;;;;5.30;4.22;;;;;;;9.62;83.22;100350.50;1744301;81;20998;-75
2021/11/06 02:36:21;;;;;;;4.28;3.85;;;;;;;9.56;83.90;100360.80;1757992;81;22674;-73
2021/11/06 02:38:47;;;;;;;4.62;3.55;;;;;;;9.51;84.68;100372.22;1757762;81;21007;-75
2021/11/06 02:41:14;;;;;;;6.90;4.75;;;;;;;9.47;85.38;100372.37;1758304;81;20995;-73
2021/11/06 02:43:40;;;;;;;7.17;4.55;;;;;;;9.43;86.22;100377.91;1728431;81;21474;-76
2021/11/06 02:46:06;;;;;;;5.35;4.50;;;;;;;9.39;86.90;100367.84;1759897;81;21543;-74
2021/11/06 02:48:33;;;;;;;6.87;4.30;;;;;;;9.35;87.65;100371.48;1761162;81;21846;-75
2021/11/06 02:50:59;;;;;;;4.80;4.35;;;;;;;9.30;88.44;100364.66;1761422;81;20966;-76
2021/11/06 02:53:25;;;;;;;7.40;5.55;;;;;;;9.27;89.30;100379.84;1758899;81;21074;-73
2021/11/06 02:55:52;;;;;;;5.92;4.85;;;;;;;9.25;90.06;100385.98;1740668;81;21065;-79
2021/11/06 02:58:18;;;;;;;8.15;4.80;;;;;;;9.22;91.07;100381.04;1756895;80;20992;-79
2021/11/06 03:00:45;;;;;;;6.58;5.10;;;;;;;9.18;91.55;100386.56;1731986;81;22367;-78
2021/11/06 03:03:12;;;;;;;6.30;4.08;;;;;;;9.15;92.04;100384.34;1760510;81;20931;-76
2021/11/06 03:05:39;;;;;;;4.40;4.03;;;;;;;9.12;92.55;100403.55;1759136;81;20963;-77
2021/11/06 03:08:05;;;;;;;6.10;4.62;;;;;;;9.11;92.79;100409.43;1759837;81;21013;-81
2021/11/06 03:10:31;;;;;;;6.60;5.15;;;;;;;9.09;92.84;100405.34;1759098;81;21014;-79
2021/11/06 03:12:59;;;;;;;9.13;4.28;;;;;;;9.07;92.90;100412.27;1761265;81;21206;-79
2021/11/06 03:15:25;;;;;;;6.72;5.10;;;;;;;9.05;92.94;100408.17;1684152;81;20975;-79
2021/11/06 03:17:52;;;;;;;6.03;4.92;;;;;;;9.02;92.83;100406.74;1732873;81;21019;-80
2021/11/06 03:20:19;;;;;;;5.12;4.35;;;;;;;8.98;92.83;100416.80;1761183;81;21015;-79
2021/11/06 03:22:46;;;;;;;4.47;3.90;;;;;;;8.95;92.94;100411.89;1761171;81;20895;-80
2021/11/06 03:25:12;;;;;;;5.85;4.62;;;;;;;8.92;93.22;100406.42;1756359;81;21036;-80
2021/11/06 03:27:40;;;;;;;5.83;4.70;;;;;;;8.90;93.22;100407.19;1731182;81;21261;-79
2021/11/06 03:30:09;;;;;;;5.65;4.62;;;;;;;8.87;93.25;100426.42;1723091;83;21535;-78
2021/11/06 03:32:37;;;;;;;4.72;4.33;;;;;;;8.85;93.31;100405.69;1717672;81;20972;-78
2021/11/06 03:35:06;;;;;;;7.00;4.40;;;;;;;8.83;93.11;100409.62;1721493;81;21517;-79
2021/11/06 03:37:32;;;;;;;4.47;4.05;;;;;;;8.78;92.99;100404.91;1752370;81;21982;-79
2021/11/06 03:39:59;;;;;;;4.83;4.37;;;;;;;8.73;92.89;100392.16;1779533;80;21001;-77
2021/11/06 03:42:26;;;;;;;5.92;5.03;;;;;;;8.73;93.13;100385.46;1753239;80;21055;-78
2021/11/06 03:44:52;;;;;;;4.85;4.35;;;;;;;8.73;93.27;100390.00;1743838;80;21039;-77
2021/11/06 03:47:18;;;;;;;7.15;4.72;;;;;;;8.75;93.46;100379.37;1771348;80;21487;-78
2021/11/06 03:49:46;;;;;;;5.50;4.72;;;;;;;8.78;93.39;100381.33;1779942;80;21039;-76
2021/11/06 03:52:13;;;;;;;5.62;5.12;;;;;;;8.78;93.47;100376.75;1735833;81;21519;-77
2021/11/06 03:54:42;;;;;;;5.40;4.90;;;;;;;8.80;93.50;100373.86;1762491;80;20971;-78
2021/11/06 03:57:08;;;;;;;5.65;5.10;;;;;;;8.82;93.44;100386.02;1724529;81;21213;-76
2021/11/06 03:59:35;;;;;;;7.08;4.90;;;;;;;8.83;93.37;100395.69;1738320;81;21043;-77
2021/11/06 04:02:02;;;;;;;6.67;5.40;;;;;;;8.85;93.24;100386.09;1764179;81;21456;-85
2021/11/06 04:04:29;;;;;;;5.10;4.60;;;;;;;8.84;93.24;100389.28;1746681;80;21060;-84
2021/11/06 04:06:55;;;;;;;5.87;5.37;;;;;;;8.88;93.35;100391.00;1747297;81;21070;-77
2021/11/06 04:09:21;;;;;;;6.10;5.60;;;;;;;8.88;93.21;100381.09;1738431;81;21004;-77
2021/11/06 04:11:47;;;;;;;5.75;4.90;;;;;;;8.89;93.08;100384.59;1738423;81;21540;-79
2021/11/06 04:14:14;;;;;;;8.58;5.55;;;;;;;8.90;93.22;100396.45;1732460;82;21096;-79
2021/11/06 04:16:40;;;;;;;6.97;5.67;;;;;;;8.91;93.15;100392.74;1750253;80;20973;-77
2021/11/06 04:19:06;;;;;;;6.40;5.25;;;;;;;8.95;93.10;100387.74;1705099;83;20963;-78
2021/11/06 04:21:34;;;;;;;6.72;6.12;;;;;;;8.97;93.07;100389.14;1732425;82;21018;-78
2021/11/06 04:24:00;;;;;;;8.43;5.22;;;;;;;9.00;92.92;100390.06;1732407;82;21011;-78
2021/11/06 04:26:29;;;;;;;6.87;5.97;;;;;;;9.02;92.42;100397.87;1771763;80;40380;-78
2021/11/06 04:28:55;;;;;;;6.45;5.42;;;;;;;9.02;92.33;100405.40;1773437;80;20996;-79
2021/11/06 04:31:22;;;;;;;6.35;5.75;;;;;;;9.03;92.08;100398.17;1779933;80;20907;-78
2021/11/06 04:33:49;;;;;;;6.72;5.25;;;;;;;9.00;91.83;100403.48;1748283;81;21003;-78
2021/11/06 04:36:16;;;;;;;7.75;6.40;;;;;;;8.92;91.10;100397.59;1731847;82;21002;-78
2021/11/06 04:38:43;;;;;;;6.72;5.12;;;;;;;8.90;90.89;100384.38;1705648;83;21729;-77
2021/11/06 04:41:10;;;;;;;6.45;5.62;;;;;;;8.91;91.17;100384.69;1680416;84;21686;-78
2021/11/06 04:43:38;;;;;;;7.45;6.45;;;;;;;8.97;91.12;100381.64;1704632;84;21551;-79
2021/11/06 04:46:05;;;;;;;8.25;6.25;;;;;;;9.03;91.06;100384.23;1734466;81;20936;-79
2021/11/06 04:48:31;;;;;;;7.15;6.37;;;;;;;9.07;90.78;100388.11;1738746;81;20967;-78
2021/11/06 04:50:58;;;;;;;6.97;6.28;;;;;;;9.06;90.15;100407.97;1726199;81;21983;-77
2021/11/06 04:53:24;;;;;;;7.33;5.28;;;;;;;9.05;89.72;100413.03;1755170;81;21035;-75
2021/11/06 04:55:50;;;;;;;7.03;5.92;;;;;;;8.98;89.28;100405.55;1746312;81;21035;-76
2021/11/06 04:58:17;;;;;;;7.03;6.30;;;;;;;8.94;89.06;100408.38;1736033;82;21020;-77
2021/11/06 05:00:43;;;;;;;7.75;6.97;;;;;;;8.91;88.96;100402.13;1735479;82;21504;-76
2021/11/06 05:03:13;;;;;;;6.67;6.12;;;;;;;8.92;88.64;100398.93;1718329;82;21044;-76
2021/11/06 05:05:38;;;;;;;7.40;6.50;;;;;;;8.92;88.33;100405.63;1741251;81;21037;-76
2021/11/06 05:08:04;;;;;;;8.43;5.92;;;;;;;8.89;87.67;100400.17;1705646;82;21051;-78
2021/11/06 05:10:32;;;;;;;8.28;6.35;;;;;;;8.86;87.33;100403.83;1712561;81;21011;-77
2021/11/06 05:12:58;;;;;;;9.23;6.03;;;;;;;8.81;87.05;100419.77;1753140;81;21461;-75
2021/11/06 05:15:26;;;;;;;8.65;5.78;;;;;;;8.78;87.25;100421.55;1747268;81;20948;-75
2021/11/06 05:17:54;;;;;;;8.10;5.80;;;;;;;8.77;87.32;100418.56;1719340;81;20949;-76
2021/11/06 05:20:20;;;;;;;7.95;6.47;;;;;;;8.77;87.02;100418.56;1743470;81;20999;-77
2021/11/06 05:22:49;;;;;;;9.28;7.42;;;;;;;8.78;87.10;100433.08;1734710;82;20983;-75
2021/11/06 05:25:15;;;;;;;7.00;6.30;;;;;;;8.80;86.96;100439.57;1735109;82;21067;-74
2021/11/06 05:27:42;;;;;;;7.28;6.47;;;;;;;8.78;86.77;100438.44;1714454;81;21751;-76
2021/11/06 05:30:10;;;;;;;6.55;5.87;;;;;;;8.76;86.61;100441.88;1726171;81;20979;-74
2021/11/06 05:32:37;;;;;;;11.65;7.05;;;;;;;8.75;86.60;100433.53;1695045;82;21516;-74
2021/11/06 05:35:05;;;;;;;8.03;7.20;;;;;;;8.74;86.56;100436.72;1735142;82;21521;-74
2021/11/06 05:37:32;;;;;;;6.72;6.05;;;;;;;8.77;86.34;100436.00;1710978;82;21575;-74
2021/11/06 05:39:59;;;;;;;7.67;6.87;;;;;;;8.78;85.67;100440.33;1735353;81;21158;-74
2021/11/06 05:42:27;;;;;;;6.42;5.83;;;;;;;8.79;85.48;100441.95;1734509;82;21243;-75
2021/11/06 05:44:53;;;;;;;8.48;6.15;;;;;;;8.77;85.21;100441.36;1707266;82;21050;-73
2021/11/06 05:47:19;;;;;;;6.40;5.80;;;;;;;8.76;85.05;100444.56;1707854;82;21023;-74
2021/11/06 05:49:46;;;;;;;10.53;6.20;;;;;;;8.78;85.10;100447.83;1735392;81;21055;-73
2021/11/06 05:52:12;;;;;;;10.93;6.62;;;;;;;8.82;84.94;100449.05;1735398;82;21077;-74
2021/11/06 05:54:40;;;;;;;7.75;6.80;;;;;;;8.86;84.69;100451.59;1731924;81;21010;-80
2021/11/06 05:57:08;;;;;;;8.95;7.95;;;;;;;8.89;84.28;100453.00;1715598;82;21030;-77
2021/11/06 05:59:34;;;;;;;8.80;7.42;;;;;;;8.89;84.09;100451.66;1749111;81;21043;-77
2021/11/06 06:02:01;;;;;;;8.45;6.42;;;;;;;8.86;83.61;100452.94;1738777;81;21004;-76
2021/11/06 06:04:27;;;;;;;8.23;5.40;;;;;;;8.86;83.50;100454.80;1718396;82;22018;-76
2021/11/06 06:06:54;;;;;;;9.25;6.10;;;;;;;8.86;83.35;100459.64;1735251;82;20951;-77
2021/11/06 06:09:22;;;;;;;5.97;5.28;;;;;;;8.90;83.22;100461.36;1744670;81;21426;-76
2021/11/06 06:11:48;;;;;;;7.15;6.37;;;;;;;8.91;82.95;100451.76;1735662;81;21040;-77
2021/11/06 06:14:15;;;;;;;7.47;6.53;;;;;;;8.92;82.63;100460.08;1704440;83;20979;-82
2021/11/06 06:16:42;;;;;;;6.67;6.08;;;;;;;8.89;82.41;100457.84;1687983;84;21878;-80
2021/11/06 06:19:10;;;;;;;10.35;6.12;;;;;;;8.87;82.47;100461.30;1733839;81;21548;-75
2021/11/06 06:21:37;;;;;;;9.63;5.92;;;;;;;8.85;82.61;100456.66;1723909;81;20993;-74
2021/11/06 06:24:04;;;;;;;7.70;5.08;;;;;;;8.85;82.42;100466.04;1737319;81;21492;-72
2021/11/06 06:26:32;;;;;;;7.53;6.10;;;;;;;8.85;81.77;100474.61;1741566;81;21568;-76
2021/11/06 06:28:58;;;;;;;6.53;5.53;;;;;;;8.84;81.55;100482.34;1740181;81;21955;-77
2021/11/06 06:31:27;;;;;;;7.28;6.37;;;;;;;8.82;81.47;100485.78;1738351;81;21048;-78
2021/11/06 06:33:54;;;;;;;6.83;5.50;;;;;;;8.77;81.40;100478.40;1727204;81;21031;-78
2021/11/06 06:36:21;;;;;;;7.35;6.62;;;;;;;8.74;81.55;100488.20;1749054;81;21075;-77
2021/11/06 06:38:48;;;;;;;6.83;6.05;;;;;;;8.70;81.39;100491.02;1710210;83;20995;-77
2021/11/06 06:41:15;;;;;;;7.62;6.45;;;;;;;8.69;81.47;100490.71;1676514;84;21103;-77
2021/11/06 06:43:42;;;;;;;6.72;5.95;;;;;;;8.71;81.59;100495.35;1676121;84;21011;-75
2021/11/06 06:46:09;;;;;;;6.83;5.97;;;;;;;8.73;81.57;100503.98;1689600;81;21587;-74
2021/11/06 06:48:36;;;;;;;6.17;5.42;;;;;;;8.74;81.57;100504.29;1741448;81;20987;-74
2021/11/06 06:51:03;;;;;;;8.28;6.25;;;;;;;8.75;81.44;100494.70;1726069;81;21123;-74
2021/11/06 06:53:29;;;;;;;11.30;6.22;;;;;;;8.78;81.37;100496.66;1707288;82;21943;-72
2021/11/06 06:55:56;;;;;;;7.78;6.40;;;;;;;8.78;81.38;100501.47;1719265;81;20980;-73
2021/11/06 06:58:22;;;;;;;7.12;6.37;;;;;;;8.81;81.25;100502.91;1732210;81;21569;-74
2021/11/06 07:00:49;;;;;;;6.53;5.53;;;;;;;8.84;80.75;100485.85;1706035;81;21039;-73
2021/11/06 07:03:15;;;;;;;6.53;5.92;;;;;;;8.88;80.39;100499.13;1700567;82;21066;-73
2021/11/06 07:05:42;;;;;;;7.03;5.87;;;;;;;8.91;80.32;100489.83;1702668;84;22349;-72
2021/11/06 07:08:09;;;;;;;6.65;6.03;;;;;;;8.97;80.12;100502.38;1702528;84;21008;-73
2021/11/06 07:10:36;;;;;;;6.75;6.05;;;;;;;8.98;79.84;100500.80;1727257;81;21087;-73
2021/11/06 07:13:02;;;;;;;6.70;6.00;;;;;;;9.00;79.56;100519.37;1718389;82;21071;-72
2021/11/06 07:15:30;;;;;;;9.45;6.40;;;;;;;9.01;79.42;100508.94;1735504;82;20952;-73
2021/11/06 07:17:57;;;;;;;7.33;5.17;;;;;;;9.03;79.34;100506.84;1718179;81;21054;-73
2021/11/06 07:20:23;;;;;;;6.97;5.70;;;;;;;9.08;79.46;100510.52;1721622;81;20971;-74
2021/11/06 07:22:50;;;;;;;6.20;5.60;;;;;;;9.14;78.73;100515.02;1718705;82;20944;-73
2021/11/06 07:25:16;;;;;;;9.65;6.47;;;;;;;9.14;77.84;100503.45;1744188;81;21047;-75
2021/11/06 07:27:43;;;;;;;7.72;5.47;;;;;;;9.16;78.22;100502.70;1727409;81;21569;-74
2021/11/06 07:30:21;;;;;;;10.25;6.80;;;;;;;9.17;78.25;100501.66;1728063;81;21148;-74
2021/11/06 07:32:51;;;;;;;7.10;6.08;;;;;;;9.19;78.35;100501.75;1705299;81;21600;-72
2021/11/06 07:35:18;;;;;;;8.68;6.62;;;;;;;9.22;77.96;100516.58;1682480;84;21070;-71
2021/11/06 07:37:45;;;;;;;7.42;6.72;;;;;;;9.24;77.50;100500.27;1715790;81;21019;-73
2021/11/06 07:40:12;;;;;;;6.40;5.80;;;;;;;9.27;77.90;100497.95;1752791;81;21544;-75
2021/11/06 07:42:41;;;;;;;6.78;6.17;;;;;;;9.31;78.17;100493.78;1723783;82;21096;-74
2021/11/06 07:45:10;;;;;;;8.30;6.08;;;;;;;9.35;77.82;100514.31;1726333;81;21497;-72
2021/11/06 07:47:36;;;;;;;6.12;5.53;;;;;;;9.35;77.09;100505.71;1687855;84;21528;-74
2021/11/06 07:50:04;;;;;;;5.95;5.35;;;;;;;9.35;77.10;100516.45;1729855;81;21040;-73
2021/11/06 07:52:31;;;;;;;5.83;5.30;;;;;;;9.36;76.83;100505.19;1708609;83;20999;-74
2021/11/06 07:54:57;;;;;;;8.90;6.60;;;;;;;9.38;76.89;100508.48;1676965;83;21055;-73
2021/11/06 07:57:23;;;;;;;6.97;6.28;;;;;;;9.42;76.79;100513.19;1702543;83;21009;-73
2021/11/06 07:59:51;;;;;;;6.65;5.95;;;;;;;9.46;76.67;100531.02;1677321;83;21100;-74
2021/11/06 08:02:17;;;;;;;8.78;7.33;;;;;;;9.48;75.78;100533.80;1713692;82;21114;-76
2021/11/06 08:04:43;;;;;;;10.58;7.00;;;;;;;9.50;75.78;100543.77;1720731;81;21500;-75
2021/11/06 08:07:09;;;;;;;8.00;7.20;;;;;;;9.51;75.29;100552.14;1713690;83;21134;-75
2021/11/06 08:09:35;;;;;;;7.85;6.90;;;;;;;9.50;75.32;100545.63;1723053;81;21050;-73
2021/11/06 08:12:02;;;;;;;6.67;6.03;;;;;;;9.53;75.12;100550.58;1682799;82;21774;-77
2021/11/06 08:14:32;;;;;;;10.53;7.00;;;;;;;9.56;74.95;100540.73;1676765;84;21015;-75
2021/11/06 08:17:00;;;;;;;7.10;6.37;;;;;;;9.61;75.26;100552.97;1722124;82;21082;-74
2021/11/06 08:19:26;;;;;;;6.35;5.80;;;;;;;9.66;74.68;100558.50;1714784;82;26928;-75
2021/11/06 08:21:53;;;;;;;8.43;6.65;;;;;;;9.71;74.43;100563.20;1685484;83;21014;-78
2021/11/06 08:24:21;;;;;;;7.03;6.33;;;;;;;9.73;74.24;100578.59;1744062;81;21140;-79
2021/11/06 08:26:49;;;;;;;9.88;6.30;;;;;;;9.73;73.05;100567.84;1735002;82;21508;-80
2021/11/06 08:29:16;;;;;;;7.00;6.30;;;;;;;9.73;73.56;100568.66;1736743;81;21129;-77
2021/11/06 08:31:43;;;;;;;8.18;6.00;;;;;;;9.71;72.90;100577.45;1742493;81;21142;-75
2021/11/06 08:34:11;;;;;;;7.28;6.30;;;;;;;9.72;72.97;100572.91;1743711;82;21516;-79
2021/11/06 08:36:38;;;;;;;7.62;6.37;;;;;;;9.73;72.25;100576.72;1724101;82;21069;-73
2021/11/06 08:39:05;;;;;;;5.85;5.30;;;;;;;9.78;72.38;100589.48;1686940;83;20972;-73
2021/11/06 08:41:33;;;;;;;7.97;5.97;;;;;;;9.82;72.19;100580.76;1680046;84;20998;-74
2021/11/06 08:43:59;;;;;;;7.03;6.28;;;;;;;9.85;71.72;100573.58;1744886;81;21188;-74
2021/11/06 08:46:26;;;;;;;6.70;6.00;;;;;;;9.90;72.08;100560.82;1756473;81;21090;-74
2021/11/06 08:48:53;;;;;;;5.92;5.28;;;;;;;9.96;71.50;100558.59;1758815;81;21035;-74
2021/11/06 08:51:19;;;;;;;5.60;5.10;;;;;;;10.00;71.39;100562.47;1700149;83;20979;-75
2021/11/06 08:53:47;;;;;;;8.65;5.83;;;;;;;10.03;70.40;100562.83;1690749;84;21034;-74
2021/11/06 08:56:14;;;;;;;8.28;5.85;;;;;;;10.02;69.38;100571.14;1727723;81;21022;-73
2021/11/06 08:58:41;;;;;;;9.53;6.40;;;;;;;10.02;69.48;100563.08;1734162;81;21050;-72
2021/11/06 09:01:07;;;;;;;6.87;6.03;;;;;;;9.99;69.13;100559.47;1760925;81;20927;-74
2021/11/06 09:03:33;;;;;;;6.53;5.80;;;;;;;9.98;69.30;100555.14;1758368;81;21068;-74
2021/11/06 09:06:00;;;;;;;7.22;5.30;;;;;;;9.99;69.37;100562.16;1732574;81;21158;-73
2021/11/06 09:08:31;;;;;;;6.90;6.12;;;;;;;10.00;68.86;100565.15;1758204;81;21250;-75
2021/11/06 09:11:04;;;;;;;8.23;6.25;;;;;;;9.98;68.50;100563.20;1743335;82;20999;-75
2021/11/06 09:13:32;;;;;;;6.28;5.53;;;;;;;9.99;68.30;100565.67;1743146;81;20954;-71
2021/11/06 09:16:02;;;;;;;8.08;5.95;;;;;;;9.99;67.15;100558.13;1729215;81;21094;-69
2021/11/06 09:18:28;;;;;;;7.20;5.65;;;;;;;9.99;67.29;100542.83;1716235;82;21512;-71
2021/11/06 09:20:54;;;;;;;6.40;5.30;;;;;;;9.98;66.12;100564.54;1737333;81;21177;-71
2021/11/06 09:23:21;;;;;;;6.58;5.97;;;;;;;9.98;65.92;100565.88;1719037;82;21091;-69
2021/11/06 09:25:48;;;;;;;5.85;5.20;;;;;;;9.99;66.17;100556.27;1698655;83;21012;-74
2021/11/06 09:28:14;;;;;;;7.50;5.15;;;;;;;10.01;66.16;100548.81;1713610;82;21064;-70
2021/11/06 09:30:41;;;;;;;6.12;5.20;;;;;;;10.02;65.58;100555.02;1694853;83;21568;-70
2021/11/06 09:33:07;;;;;;;5.22;4.75;;;;;;;10.02;65.18;100556.35;1722403;82;21758;-71
2021/11/06 09:35:34;;;;;;;6.08;5.42;;;;;;;9.99;64.86;100542.00;1713105;83;21517;-70
2021/11/06 09:38:01;;;;;;;5.47;4.97;;;;;;;9.98;65.21;100539.01;1698496;83;21000;-71
2021/11/06 09:40:27;;;;;;;5.42;4.60;;;;;;;9.99;65.71;100546.03;1699065;82;21556;-71
2021/11/06 09:42:53;;;;;;;6.35;5.72;;;;;;;10.02;65.21;100551.77;1716178;82;21106;-70
2021/11/06 09:45:20;;;;;;;7.42;6.28;;;;;;;10.02;65.45;100547.74;1771453;80;21922;-70
2021/11/06 09:47:48;;;;;;;6.90;6.08;;;;;;;9.99;65.31;100550.06;1741561;81;21528;-70
2021/11/06 09:50:17;;;;;;;5.92;5.33;;;;;;;9.94;65.24;100564.17;1730299;81;21599;-71
2021/11/06 09:52:45;;;;;;;8.20;6.67;;;;;;;9.92;65.29;100553.37;1760829;81;20987;-71
2021/11/06 09:55:11;;;;;;;6.70;6.00;;;;;;;9.94;65.20;100545.88;1757470;80;21556;-71
2021/11/06 09:57:38;;;;;;;6.85;5.60;;;;;;;9.94;65.72;100551.27;1764298;80;21051;-70
2021/11/06 10:00:07;;;;;;;7.62;5.60;;;;;;;9.95;65.48;100552.91;1762549;80;21065;-70
2021/11/06 10:02:35;;;;;;;8.63;5.70;;;;;;;9.97;65.07;100548.14;1766143;80;21571;-71
2021/11/06 10:05:05;;;;;;;6.55;5.08;;;;;;;10.00;64.74;100556.57;1791868;79;20984;-71
2021/11/06 10:07:33;;;;;;;7.78;5.75;;;;;;;10.01;64.82;100556.88;1769051;80;21056;-70
2021/11/06 10:10:07;;;;;;;5.92;5.35;;;;;;;10.02;64.71;100528.13;1795823;80;21097;-78
2021/11/06 10:12:52;;;;;;;5.12;4.50;;;;;;;10.02;64.31;100545.61;1796027;79;21028;-71
2021/11/06 10:15:21;;;;;;;6.33;4.57;;;;;;;10.02;64.51;100522.20;1767325;80;21007;-72
2021/11/06 10:17:48;;;;;;;6.35;4.92;;;;;;;10.02;64.96;100514.14;1789978;80;21023;-71
2021/11/06 10:20:23;;;;;;;7.75;5.30;;;;;;;10.03;64.48;100556.63;1792204;80;21089;-72
2021/11/06 10:22:51;;;;;;;4.30;3.90;;;;;;;10.03;64.40;100527.89;1766765;80;21244;-71
2021/11/06 10:25:21;;;;;;;5.58;4.60;;;;;;;10.06;64.31;100538.20;1790445;80;20967;-70
2021/11/06 10:27:56;;;;;;;7.67;5.05;;;;;;;10.10;64.31;100524.30;1761942;80;21079;-71
2021/11/06 10:30:32;;;;;;;4.90;4.50;;;;;;;10.14;64.05;100563.95;1761755;80;20996;-71
2021/11/06 10:33:17;;;;;;;6.22;5.17;;;;;;;10.15;64.08;100537.37;1763170;80;20924;-69
2021/11/06 10:35:49;;;;;;;5.67;5.17;;;;;;;10.16;64.37;100524.78;1770261;80;21981;-70
2021/11/06 10:38:18;;;;;;;10.50;5.97;;;;;;;10.22;64.37;100530.58;1769978;80;20986;-73
2021/11/06 10:40:52;;;;;;;6.67;5.22;;;;;;;10.29;64.15;100517.36;1795924;80;21495;-76
2021/11/06 10:43:21;;;;;;;9.40;6.30;;;;;;;10.39;63.93;100515.47;1795945;79;20970;-73
2021/11/06 10:45:53;;;;;;;7.50;5.90;;;;;;;10.49;64.04;100519.25;1764502;80;20929;-72
2021/11/06 10:48:21;;;;;;;6.45;5.70;;;;;;;10.60;63.92;100530.28;1793092;79;21114;-71
2021/11/06 10:50:59;;;;;;;8.38;6.35;;;;;;;10.69;63.49;100513.58;1792939;80;21025;-71
2021/11/06 10:53:34;;;;;;;7.70;5.55;;;;;;;10.76;62.76;100531.78;1793400;79;20927;-70
2021/11/06 10:56:27;;;;;;;5.95;4.78;;;;;;;10.84;62.09;100512.59;1790109;80;21512;-71
2021/11/06 10:58:58;;;;;;;6.10;5.28;;;;;;;10.92;62.21;100515.49;1794120;79;21582;-71
2021/11/06 11:01:33;;;;;;;5.35;4.85;;;;;;;10.96;60.58;100509.11;1796164;79;21910;-71
2021/11/06 11:04:07;;;;;;;6.22;5.10;;;;;;;10.94;60.75;100503.95;1796169;79;21427;-74
2021/11/06 11:06:38;;;;;;;6.20;5.60;;;;;;;10.89;61.02;100515.94;1773292;79;20945;-72
2021/11/06 11:09:09;;;;;;;4.20;3.80;;;;;;;10.85;60.99;100509.38;1752341;80;20981;-72
2021/11/06 11:11:36;;;;;;;4.47;4.08;;;;;;;10.81;61.13;100526.52;1734634;81;21065;-71
2021/11/06 11:14:07;;;;;;;5.30;4.83;;;;;;;10.71;61.09;100515.50;1778903;79;21768;-72
2021/11/06 11:16:40;;;;;;;6.08;5.47;;;;;;;10.63;61.65;100514.49;1780822;79;22088;-73
2021/11/06 11:19:09;;;;;;;4.78;4.28;;;;;;;10.55;61.39;100513.45;1789640;79;21093;-74
2021/11/06 11:21:42;;;;;;;7.25;6.58;;;;;;;10.50;61.91;100507.42;1775926;79;21054;-72
2021/11/06 11:24:16;;;;;;;5.45;4.87;;;;;;;10.46;62.02;100521.56;1769218;79;21089;-73
2021/11/06 11:26:50;;;;;;;8.40;6.55;;;;;;;10.39;62.46;100512.26;1711026;83;21096;-74
2021/11/06 11:29:21;;;;;;;;;;;;;;;10.34;62.90;100519.36;1720934;82;21048;-73
2021/11/06 11:31:46;;;;;;;6.80;5.20;;;;;;;10.35;62.93;100523.18;1743189;81;20111;-73
2021/11/06 11:34:12;;;;;;;5.90;5.28;;;;;;;10.42;62.83;100507.75;1734657;82;21113;-72